Time;durP1;ratioP1;P1;durP2;ratioP2;P2;SDS_P1;SDS_P2;PMS_P1;PMS_P2;Temp;Humidity;BMP_temperature;BMP_pressure;BME280_temperature;BME280_humidity;BME280_pressure;Samples;Min_cycle;Max_cycle;Signal;HPM_P1;HPM_P2
2023/09/01 00:00:06;;;;;;;14.20;7.90;;;;;;;22.40;64.67;100192.45;105502;1256;60373;-69
2023/09/01 00:02:33;;;;;;;9.80;7.40;;;;;;;22.42;64.66;100197.98;105459;1255;65056;-68
2023/09/01 00:05:08;;;;;;;10.80;7.90;;;;;;;22.44;64.57;100204.66;105479;1253;60555;-70
2023/09/01 00:07:35;;;;;;;9.70;7.70;;;;;;;22.42;64.21;100209.69;105922;1254;63837;-68
2023/09/01 00:10:05;;;;;;;10.60;8.10;;;;;;;22.38;64.29;100211.38;105423;1251;60583;-68
2023/09/01 00:12:32;;;;;;;8.70;6.70;;;;;;;22.36;64.37;100214.52;105492;1253;60338;-64
2023/09/01 00:14:59;;;;;;;8.10;6.20;;;;;;;22.35;64.45;100214.05;105504;1254;64910;-68
2023/09/01 00:17:27;;;;;;;8.50;7.50;;;;;;;22.35;64.34;100218.84;105519;1254;61539;-70
2023/09/01 00:19:54;;;;;;;10.90;7.20;;;;;;;22.33;64.24;100216.52;105450;1253;64280;-69
2023/09/01 00:22:22;;;;;;;9.60;7.00;;;;;;;22.29;64.44;100213.79;105503;1253;60535;-69
2023/09/01 00:24:49;;;;;;;12.90;7.90;;;;;;;22.29;64.44;100210.45;105308;1254;363793;-69
2023/09/01 00:28:55;;;;;;;9.10;7.20;;;;;;;22.14;64.76;100210.73;102413;1291;601099;-70
2023/09/01 00:31:23;;;;;;;9.70;6.40;;;;;;;22.28;64.38;100214.33;104434;1267;59325;-69
2023/09/01 00:33:50;;;;;;;10.50;7.20;;;;;;;22.34;64.10;100217.68;104389;1266;59271;-70
2023/09/01 00:36:18;;;;;;;9.10;6.40;;;;;;;22.36;63.95;100216.64;105124;1265;63364;-69
2023/09/01 00:38:45;;;;;;;9.70;7.50;;;;;;;22.34;63.59;100213.92;104967;1269;61639;-70
2023/09/01 00:41:13;;;;;;;9.40;6.70;;;;;;;22.26;63.60;100210.89;105136;1269;62453;-69
2023/09/01 00:43:40;;;;;;;10.10;7.10;;;;;;;22.22;63.53;100211.54;104868;1263;240945;-70
2023/09/01 00:46:08;;;;;;;9.50;6.40;;;;;;;22.20;63.50;100209.66;104798;1260;59282;-71
2023/09/01 00:48:37;;;;;;;9.60;7.20;;;;;;;22.19;63.37;100207.56;104805;1261;62186;-71
2023/09/01 00:51:04;;;;;;;9.20;7.50;;;;;;;22.17;63.20;100209.34;105445;1265;60098;-71
2023/09/01 00:53:33;;;;;;;9.00;7.30;;;;;;;22.13;63.00;100212.29;104855;1262;62432;-72
2023/09/01 00:56:01;;;;;;;11.70;6.80;;;;;;;22.09;63.02;100213.23;104936;1262;59750;-67
2023/09/01 00:58:28;;;;;;;10.00;6.90;;;;;;;22.02;63.38;100216.98;104839;1260;59682;-66
2023/09/01 01:00:58;;;;;;;9.10;6.10;;;;;;;21.94;63.32;100220.73;105478;1265;74165;-67
2023/09/01 01:03:26;;;;;;;8.20;6.00;;;;;;;21.86;63.76;100232.29;105488;1265;60215;-71
2023/09/01 01:06:09;;;;;;;8.20;6.40;;;;;;;21.80;63.93;100236.77;104887;1264;63806;-69
2023/09/01 01:09:00;;;;;;;9.00;6.40;;;;;;;21.75;64.18;100238.39;104843;1265;59752;-72
2023/09/01 01:11:44;;;;;;;10.50;6.70;;;;;;;21.66;64.52;100244.83;104914;1265;59587;-70
2023/09/01 01:14:22;;;;;;;8.10;6.60;;;;;;;21.60;64.68;100243.02;104945;1265;64263;-72
2023/09/01 01:16:50;;;;;;;8.40;6.20;;;;;;;21.56;64.60;100245.34;105089;1265;61440;-72
2023/09/01 01:19:47;;;;;;;7.80;6.00;;;;;;;21.55;64.58;100237.35;104822;1259;63718;-71
2023/09/01 01:22:15;;;;;;;8.70;5.50;;;;;;;21.56;64.63;100231.54;105171;1262;59633;-70
2023/09/01 01:24:42;;;;;;;8.30;6.00;;;;;;;21.61;64.62;100222.89;105026;1257;59916;-71
2023/09/01 01:27:10;;;;;;;9.90;6.00;;;;;;;21.68;64.24;100216.20;105252;1261;64127;-71
2023/09/01 01:29:37;;;;;;;7.60;6.00;;;;;;;21.74;63.87;100207.12;105233;1259;69176;-69
2023/09/01 01:32:05;;;;;;;10.90;6.40;;;;;;;21.75;63.63;100214.58;105326;1256;62463;-69
2023/09/01 01:34:37;;;;;;;8.40;5.80;;;;;;;21.72;63.57;100220.20;105480;1254;59839;-70
2023/09/01 01:37:04;;;;;;;8.30;5.40;;;;;;;21.64;63.78;100215.35;105485;1260;59892;-69
2023/09/01 01:39:33;;;;;;;9.10;5.90;;;;;;;21.63;63.85;100214.73;105161;1261;64181;-69
2023/09/01 01:42:02;;;;;;;10.30;6.20;;;;;;;21.61;63.90;100219.75;105328;1256;61450;-69
2023/09/01 01:44:33;;;;;;;9.80;6.10;;;;;;;21.56;63.93;100214.70;105164;1254;63789;-68
2023/09/01 01:47:02;;;;;;;7.80;6.20;;;;;;;21.49;64.08;100212.44;105345;1262;60536;-70
2023/09/01 01:49:30;;;;;;;8.60;5.80;;;;;;;21.41;64.29;100214.86;105373;1259;60144;-69
2023/09/01 01:51:59;;;;;;;11.70;5.70;;;;;;;21.35;64.45;100218.23;105327;1261;62848;-68
2023/09/01 01:54:27;;;;;;;28.60;22.90;;;;;;;21.32;64.61;100223.57;105348;1260;61508;-69
2023/09/01 01:56:55;;;;;;;13.00;10.20;;;;;;;21.29;64.68;100230.22;105287;1256;63727;-66
2023/09/01 01:59:23;;;;;;;10.40;6.80;;;;;;;21.23;64.88;100235.70;105028;1262;59733;-69
2023/09/01 02:01:50;;;;;;;11.00;6.50;;;;;;;21.17;64.99;100239.16;105150;1256;59623;-73
2023/09/01 02:04:18;;;;;;;9.50;6.20;;;;;;;21.14;65.19;100244.13;106094;1253;64111;-71
2023/09/01 02:06:47;;;;;;;9.70;6.60;;;;;;;21.14;65.12;100249.14;106091;1254;61504;-72
2023/09/01 02:09:14;;;;;;;8.00;5.70;;;;;;;21.16;65.00;100250.02;105557;1256;63772;-73
2023/09/01 02:11:42;;;;;;;8.10;6.00;;;;;;;21.17;65.17;100253.40;105599;1253;59766;-69
2023/09/01 02:14:10;;;;;;;11.30;6.80;;;;;;;21.18;65.16;100253.32;106063;1253;59733;-70
2023/09/01 02:16:39;;;;;;;9.70;6.30;;;;;;;21.13;65.48;100258.76;105996;1253;64186;-70
2023/09/01 02:19:11;;;;;;;11.80;6.80;;;;;;;21.01;65.44;100255.48;106058;1255;69043;-70
2023/09/01 02:21:39;;;;;;;8.30;6.30;;;;;;;20.88;65.57;100256.23;106141;1254;62566;-68
2023/09/01 02:24:07;;;;;;;8.10;6.20;;;;;;;20.76;65.81;100257.33;105345;1252;59826;-66
2023/09/01 02:26:34;;;;;;;9.60;6.90;;;;;;;20.70;66.15;100257.48;105669;1253;60079;-60
2023/09/01 02:29:05;;;;;;;13.10;6.80;;;;;;;20.68;66.24;100260.27;105447;1253;62886;-67
2023/09/01 02:31:32;;;;;;;9.00;6.40;;;;;;;20.64;66.50;100256.92;105686;1253;61499;-59
2023/09/01 02:34:00;;;;;;;13.90;6.40;;;;;;;20.56;66.74;100256.91;105574;1253;63771;-59
2023/09/01 02:36:29;;;;;;;11.20;7.00;;;;;;;20.48;67.01;100255.89;105396;1259;60474;-61
2023/09/01 02:38:57;;;;;;;9.40;6.90;;;;;;;20.49;67.43;100255.45;105719;1258;59552;-61
2023/09/01 02:41:25;;;;;;;10.50;6.50;;;;;;;20.56;67.36;100258.31;106070;1253;64199;-62
2023/09/01 02:43:52;;;;;;;8.70;7.00;;;;;;;20.65;67.08;100261.05;106015;1257;60195;-60
2023/09/01 02:46:20;;;;;;;10.80;6.20;;;;;;;20.70;66.98;100258.14;105197;1256;63629;-61
2023/09/01 02:48:48;;;;;;;10.10;6.90;;;;;;;20.74;66.88;100259.54;105219;1257;59641;-62
2023/09/01 02:51:16;;;;;;;8.80;6.40;;;;;;;20.79;66.86;100261.39;105413;1253;59734;-59
2023/09/01 02:53:44;;;;;;;9.20;6.80;;;;;;;20.82;66.69;100264.48;105480;1257;62836;-62
2023/09/01 02:56:11;;;;;;;9.80;7.20;;;;;;;20.84;66.61;100264.39;106062;1253;61912;-62
2023/09/01 02:58:39;;;;;;;10.40;6.50;;;;;;;20.87;66.43;100270.26;106014;1253;63701;-62
2023/09/01 03:01:08;;;;;;;11.60;6.40;;;;;;;20.85;66.47;100275.34;106001;1254;59317;-62
2023/09/01 03:03:37;;;;;;;9.60;6.90;;;;;;;20.81;66.58;100273.63;106079;1253;59757;-62
2023/09/01 03:06:08;;;;;;;9.30;6.70;;;;;;;20.80;66.67;100273.05;106444;1253;62859;-62
2023/09/01 03:08:37;;;;;;;13.10;7.40;;;;;;;20.81;66.73;100274.48;106204;1259;60326;-63
2023/09/01 03:11:05;;;;;;;8.60;6.90;;;;;;;20.87;66.51;100273.95;105552;1257;62654;-55
2023/09/01 03:13:33;;;;;;;10.00;6.30;;;;;;;20.93;66.55;100271.17;105471;1258;59745;-54
2023/09/01 03:16:03;;;;;;;9.80;6.70;;;;;;;20.99;66.29;100273.85;105437;1257;59716;-54
2023/09/01 03:18:31;;;;;;;10.30;7.20;;;;;;;21.02;66.17;100271.16;105963;1253;64517;-55
2023/09/01 03:21:12;;;;;;;9.10;7.00;;;;;;;21.02;66.21;100273.30;105510;1253;61366;-55
2023/09/01 03:23:41;;;;;;;13.60;7.40;;;;;;;21.00;65.98;100275.91;105520;1253;63733;-57
2023/09/01 03:26:09;;;;;;;9.80;6.80;;;;;;;20.97;65.85;100281.12;105530;1257;59753;-54
2023/09/01 03:28:39;;;;;;;9.50;6.70;;;;;;;20.98;65.96;100287.39;105641;1256;59945;-53
2023/09/01 03:31:10;;;;;;;10.80;7.00;;;;;;;21.01;65.84;100290.29;105478;1253;62927;-56
2023/09/01 03:33:40;;;;;;;11.20;7.00;;;;;;;20.99;65.91;100290.84;105973;1253;61450;-56
2023/09/01 03:36:08;;;;;;;11.20;7.70;;;;;;;20.98;66.03;100293.11;105464;1254;65220;-55
2023/09/01 03:38:36;;;;;;;8.50;6.30;;;;;;;20.98;66.18;100295.73;105539;1253;60967;-54
2023/09/01 03:41:04;;;;;;;8.60;6.00;;;;;;;21.04;65.89;100301.27;105772;1257;59641;-55
2023/09/01 03:43:32;;;;;;;9.20;6.90;;;;;;;21.06;65.60;100306.17;105395;1253;64088;-55
2023/09/01 03:46:01;;;;;;;9.50;6.90;;;;;;;21.06;65.52;100311.02;105499;1253;61471;-55
2023/09/01 03:48:28;;;;;;;11.00;7.20;;;;;;;21.03;65.64;100310.13;105530;1256;63871;-59
2023/09/01 03:51:09;;;;;;;8.60;6.90;;;;;;;20.94;65.60;100310.84;105380;1253;60923;-53
2023/09/01 03:53:37;;;;;;;9.40;6.60;;;;;;;20.88;66.03;100311.08;105079;1254;59725;-56
2023/09/01 03:56:09;;;;;;;8.10;7.00;;;;;;;20.89;66.07;100312.90;105144;1257;73002;-57
2023/09/01 03:58:37;;;;;;;9.20;6.60;;;;;;;20.94;65.94;100314.56;105575;1253;61334;-58
2023/09/01 04:01:10;;;;;;;9.90;6.80;;;;;;;20.97;65.75;100316.23;105263;1253;62596;-59
2023/09/01 04:03:38;;;;;;;9.50;6.70;;;;;;;20.95;65.79;100317.56;105401;1256;60902;-59
2023/09/01 04:06:06;;;;;;;9.80;7.30;;;;;;;20.83;65.90;100318.28;105401;1258;59602;-58
2023/09/01 04:08:34;;;;;;;10.10;7.30;;;;;;;20.70;66.24;100311.86;105299;1252;62908;-57
2023/09/01 04:11:03;;;;;;;9.90;7.30;;;;;;;20.62;66.53;100308.80;105311;1258;61365;-56
2023/09/01 04:13:31;;;;;;;11.40;7.40;;;;;;;20.61;66.74;100307.30;105355;1253;63686;-56
2023/09/01 04:16:00;;;;;;;10.10;7.60;;;;;;;20.60;66.90;100314.33;105201;1254;60709;-57
2023/09/01 04:18:27;;;;;;;9.00;7.10;;;;;;;20.55;66.81;100315.02;106256;1251;59682;-58
2023/09/01 04:20:55;;;;;;;9.20;7.80;;;;;;;20.45;67.23;100317.45;105150;1258;64234;-60
2023/09/01 04:23:22;;;;;;;11.10;8.10;;;;;;;20.41;67.40;100319.84;105437;1253;61366;-60
2023/09/01 04:25:50;;;;;;;11.20;8.50;;;;;;;20.37;67.84;100324.78;105628;1253;64447;-59
2023/09/01 04:28:19;;;;;;;11.70;9.10;;;;;;;20.39;67.82;100327.79;105699;1258;59756;-64
2023/09/01 04:30:48;;;;;;;10.90;8.10;;;;;;;20.43;67.84;100334.09;105025;1252;59545;-59
2023/09/01 04:33:16;;;;;;;13.20;8.50;;;;;;;20.50;67.82;100334.31;105342;1256;64587;-60
2023/09/01 04:35:43;;;;;;;13.30;8.80;;;;;;;20.57;67.79;100334.64;105199;1256;60200;-63
2023/09/01 04:38:11;;;;;;;10.00;8.30;;;;;;;20.65;67.88;100337.96;105159;1253;62529;-58
2023/09/01 04:40:39;;;;;;;12.50;8.80;;;;;;;20.73;67.60;100338.96;105055;1258;60511;-60
2023/09/01 04:43:07;;;;;;;12.00;8.90;;;;;;;20.78;67.17;100336.20;105342;1257;60659;-60
2023/09/01 04:45:35;;;;;;;10.90;7.90;;;;;;;20.84;66.94;100339.73;105254;1256;63658;-61
2023/09/01 04:48:04;;;;;;;9.70;7.90;;;;;;;20.94;66.84;100339.98;105511;1259;61892;-61
2023/09/01 04:50:32;;;;;;;12.60;9.10;;;;;;;21.04;66.65;100341.05;106152;1258;62452;-63
2023/09/01 04:53:00;;;;;;;10.10;8.90;;;;;;;21.11;66.46;100344.20;105590;1258;60580;-58
2023/09/01 04:55:28;;;;;;;10.90;8.50;;;;;;;21.15;65.97;100341.40;105847;1253;60533;-60
2023/09/01 04:57:55;;;;;;;11.60;8.90;;;;;;;21.23;65.78;100343.67;105509;1253;63641;-61
2023/09/01 05:00:23;;;;;;;12.80;8.40;;;;;;;21.28;65.39;100346.02;105879;1257;60498;-58
2023/09/01 05:02:50;;;;;;;13.50;9.40;;;;;;;21.35;65.18;100351.20;105074;1256;63673;-59
2023/09/01 05:05:18;;;;;;;12.70;8.80;;;;;;;21.42;64.81;100348.97;105073;1254;60571;-61
2023/09/01 05:07:46;;;;;;;11.70;9.40;;;;;;;21.47;64.70;100346.10;109156;1252;59755;-58
2023/09/01 05:10:13;;;;;;;13.10;9.60;;;;;;;21.50;64.57;100344.36;108549;1255;64920;-57
2023/09/01 05:12:41;;;;;;;14.30;9.70;;;;;;;21.50;64.57;100343.45;105333;1253;61349;-60
2023/09/01 05:15:09;;;;;;;12.50;9.70;;;;;;;21.49;64.45;100341.48;105430;1253;63725;-63
2023/09/01 05:17:37;;;;;;;12.60;9.30;;;;;;;21.48;64.47;100338.66;105754;1256;60382;-61
2023/09/01 05:20:09;;;;;;;11.80;9.20;;;;;;;21.57;64.57;100341.23;105359;1258;60386;-63
2023/09/01 05:22:37;;;;;;;10.70;8.50;;;;;;;21.68;64.47;100341.38;105224;1254;65958;-61
2023/09/01 05:25:05;;;;;;;13.10;9.90;;;;;;;21.76;64.09;100341.40;105527;1259;60622;-62
2023/09/01 05:27:34;;;;;;;11.70;9.60;;;;;;;21.80;63.82;100341.13;105349;1253;63724;-67
2023/09/01 05:30:01;;;;;;;10.20;8.70;;;;;;;21.82;63.95;100345.66;105201;1253;60559;-60
2023/09/01 05:32:30;;;;;;;13.30;9.50;;;;;;;21.82;63.79;100344.71;105356;1256;60280;-64
2023/09/01 05:34:57;;;;;;;14.40;9.80;;;;;;;21.84;63.88;100348.11;105295;1258;64192;-64
2023/09/01 05:37:25;;;;;;;12.10;9.40;;;;;;;21.90;63.92;100353.16;105195;1259;61789;-66
2023/09/01 05:39:52;;;;;;;13.00;10.30;;;;;;;21.91;63.89;100354.83;104976;1259;63752;-62
2023/09/01 05:42:20;;;;;;;13.60;10.00;;;;;;;21.88;63.94;100357.90;105321;1254;60556;-61
2023/09/01 05:44:48;;;;;;;12.30;9.20;;;;;;;21.87;63.96;100355.02;105392;1259;60585;-58
2023/09/01 05:47:15;;;;;;;12.20;9.70;;;;;;;21.86;63.89;100349.73;105377;1256;66960;-60
2023/09/01 05:49:43;;;;;;;11.50;9.20;;;;;;;21.88;64.01;100346.24;105321;1253;61489;-61
2023/09/01 05:52:11;;;;;;;12.30;9.30;;;;;;;21.94;64.17;100344.25;105507;1257;63845;-50
2023/09/01 05:54:38;;;;;;;11.30;9.90;;;;;;;21.97;64.47;100338.58;105389;1253;60549;-57
2023/09/01 05:57:06;;;;;;;12.80;10.00;;;;;;;21.98;64.59;100340.02;105467;1257;59257;-62
2023/09/01 05:59:33;;;;;;;13.50;9.70;;;;;;;22.00;64.61;100338.52;105337;1256;64973;-57
2023/09/01 06:02:01;;;;;;;13.00;9.30;;;;;;;22.03;64.67;100337.16;105443;1253;61296;-65
2023/09/01 06:04:29;;;;;;;11.20;9.20;;;;;;;22.06;64.49;100336.10;105360;1257;62475;-56
2023/09/01 06:06:56;;;;;;;11.40;9.60;;;;;;;22.10;64.35;100338.23;105538;1253;60628;-57
2023/09/01 06:09:23;;;;;;;12.20;10.60;;;;;;;22.14;64.24;100335.68;105391;1250;60554;-60
2023/09/01 06:11:51;;;;;;;13.60;10.70;;;;;;;22.18;64.45;100331.54;105502;1256;64928;-62
2023/09/01 06:14:18;;;;;;;11.90;9.90;;;;;;;22.24;64.25;100334.53;105329;1257;60559;-55
2023/09/01 06:16:47;;;;;;;12.70;9.80;;;;;;;22.33;64.31;100339.41;105345;1254;63740;-60
2023/09/01 06:19:14;;;;;;;11.70;9.30;;;;;;;22.42;64.23;100342.58;105619;1253;60494;-57
2023/09/01 06:21:42;;;;;;;11.40;9.00;;;;;;;22.44;63.90;100344.36;105723;1256;60445;-58
2023/09/01 06:24:10;;;;;;;11.30;9.40;;;;;;;22.43;64.04;100345.09;105546;1257;64932;-54
2023/09/01 06:26:38;;;;;;;11.60;8.50;;;;;;;22.43;63.91;100351.27;105540;1256;61460;-58
2023/09/01 06:29:05;;;;;;;10.20;8.40;;;;;;;22.49;63.76;100355.02;105280;1254;63707;-56
2023/09/01 06:31:33;;;;;;;10.60;8.10;;;;;;;22.55;63.78;100353.70;105469;1259;60467;-58
2023/09/01 06:34:00;;;;;;;10.90;8.10;;;;;;;22.59;63.29;100350.29;105601;1257;60433;-58
2023/09/01 06:36:28;;;;;;;13.10;7.90;;;;;;;22.64;62.90;100345.61;105481;1257;64901;-56
2023/09/01 06:38:56;;;;;;;10.10;7.50;;;;;;;22.73;62.53;100348.34;105136;1253;61584;-55
2023/09/01 06:41:23;;;;;;;10.00;6.70;;;;;;;22.75;62.26;100350.03;105537;1256;63677;-56
2023/09/01 06:43:51;;;;;;;8.70;6.60;;;;;;;22.80;62.17;100350.25;105357;1254;60471;-53
2023/09/01 06:46:18;;;;;;;9.60;7.10;;;;;;;22.86;61.54;100349.96;105409;1257;59527;-59
2023/09/01 06:48:48;;;;;;;9.70;7.20;;;;;;;22.89;61.20;100349.77;105701;1252;65012;-59
2023/09/01 06:51:16;;;;;;;23.50;10.00;;;;;;;22.89;61.26;100348.50;105586;1257;60536;-57
2023/09/01 06:53:43;;;;;;;11.10;6.80;;;;;;;22.88;60.99;100344.48;105303;1253;63659;-60
2023/09/01 06:56:11;;;;;;;17.50;8.30;;;;;;;22.90;60.66;100341.05;105406;1257;60733;-59
2023/09/01 06:58:38;;;;;;;13.30;6.80;;;;;;;22.91;60.68;100341.59;109272;1255;58332;-54
2023/09/01 07:01:11;;;;;;;11.90;7.10;;;;;;;22.91;60.61;100340.08;109321;1253;64246;-56
2023/09/01 07:03:38;;;;;;;12.00;7.20;;;;;;;22.90;60.74;100335.70;109324;1251;61375;-59
2023/09/01 07:06:06;;;;;;;11.30;7.30;;;;;;;22.94;61.12;100336.92;109350;1253;63749;-55
2023/09/01 07:08:34;;;;;;;9.90;6.60;;;;;;;23.00;60.54;100341.52;109269;1253;58472;-58
2023/09/01 07:11:06;;;;;;;9.90;6.90;;;;;;;23.05;60.17;100342.31;109310;1253;58525;-60
2023/09/01 07:13:33;;;;;;;9.50;6.80;;;;;;;23.08;60.11;100343.52;106024;1259;64955;-62
2023/09/01 07:16:01;;;;;;;90.90;21.90;;;;;;;23.12;60.18;100343.74;105451;1255;61607;-60
2023/09/01 07:18:29;;;;;;;18.40;7.90;;;;;;;23.20;60.19;100343.75;105408;1267;62579;-54
2023/09/01 07:20:58;;;;;;;21.30;9.70;;;;;;;23.30;60.15;100340.56;105567;1256;60512;-59
2023/09/01 07:23:28;;;;;;;26.40;9.30;;;;;;;23.37;59.97;100339.60;105775;1253;60560;-55
2023/09/01 07:25:58;;;;;;;24.10;9.60;;;;;;;23.43;59.91;100338.27;105492;1257;63695;-58
2023/09/01 07:28:25;;;;;;;75.00;17.20;;;;;;;23.47;59.62;100338.84;105335;1263;61351;-55
2023/09/01 07:30:53;;;;;;;15.90;8.30;;;;;;;23.50;59.81;100343.64;105493;1253;63686;-60
2023/09/01 07:33:21;;;;;;;45.30;12.60;;;;;;;23.55;59.54;100344.20;105450;1257;60558;-58
2023/09/01 07:35:49;;;;;;;52.70;15.10;;;;;;;23.58;59.02;100345.19;105423;1255;60470;-57
2023/09/01 07:38:17;;;;;;;32.00;10.90;;;;;;;23.58;58.87;100341.64;105431;1253;65787;-56
2023/09/01 07:40:45;;;;;;;24.10;9.20;;;;;;;23.56;59.09;100342.96;105559;1254;63577;-58
2023/09/01 07:43:12;;;;;;;17.30;9.20;;;;;;;23.49;58.76;100344.91;105523;1257;62522;-60
2023/09/01 07:45:40;;;;;;;16.80;8.40;;;;;;;23.45;58.84;100342.81;105344;1256;60450;-64
2023/09/01 07:48:08;;;;;;;13.40;7.80;;;;;;;23.42;58.58;100347.48;105266;1259;60559;-59
2023/09/01 07:50:48;;;;;;;33.60;9.80;;;;;;;23.46;58.66;100349.55;105314;1257;64866;-59
2023/09/01 07:53:16;;;;;;;17.90;8.70;;;;;;;23.49;58.85;100352.85;109306;1254;61460;-57
2023/09/01 07:55:43;;;;;;;49.60;14.60;;;;;;;23.56;58.76;100349.33;109282;1253;65433;-67
2023/09/01 07:58:11;;;;;;;11.40;7.60;;;;;;;23.63;58.58;100345.64;109304;1254;58144;-59
2023/09/01 08:00:40;;;;;;;12.40;7.00;;;;;;;23.69;58.82;100352.07;108144;1255;59753;-58
2023/09/01 08:03:10;;;;;;;23.20;10.10;;;;;;;23.81;59.17;100351.85;105479;1257;64928;-61
2023/09/01 08:05:39;;;;;;;18.30;9.50;;;;;;;23.99;58.85;100356.85;105343;1259;61618;-59
2023/09/01 08:08:07;;;;;;;8.90;7.00;;;;;;;24.09;58.15;100356.64;109259;1255;63672;-61
2023/09/01 08:10:35;;;;;;;9.20;7.30;;;;;;;24.16;57.29;100357.41;109200;1253;58296;-58
2023/09/01 08:13:05;;;;;;;11.20;6.50;;;;;;;24.17;56.86;100355.91;108520;1254;59227;-61
2023/09/01 08:15:32;;;;;;;13.90;6.70;;;;;;;24.20;56.38;100351.94;105269;1257;64985;-54
2023/09/01 08:18:00;;;;;;;9.40;7.20;;;;;;;24.23;56.66;100353.33;105664;1254;61305;-65
2023/09/01 08:20:28;;;;;;;10.20;7.10;;;;;;;24.26;56.50;100353.65;105973;1258;62484;-54
2023/09/01 08:22:55;;;;;;;9.40;6.30;;;;;;;24.30;56.16;100358.97;105400;1259;60568;-57
2023/09/01 08:25:23;;;;;;;10.60;6.60;;;;;;;24.34;55.99;100360.40;105457;1258;60571;-55
2023/09/01 08:27:50;;;;;;;78.20;18.10;;;;;;;24.35;55.86;100359.62;105453;1257;64897;-55
2023/09/01 08:30:18;;;;;;;47.30;15.40;;;;;;;24.34;55.86;100361.80;105300;1259;61932;-67
2023/09/01 08:32:45;;;;;;;20.50;8.80;;;;;;;24.35;55.74;100364.23;105507;1254;63734;-69
2023/09/01 08:35:13;;;;;;;11.80;7.30;;;;;;;24.35;55.52;100366.77;105521;1255;60448;-55
2023/09/01 08:37:40;;;;;;;13.90;7.80;;;;;;;24.36;55.94;100366.59;105379;1257;60430;-57
2023/09/01 08:40:11;;;;;;;40.70;10.80;;;;;;;24.41;56.04;100368.97;105421;1252;64965;-62
2023/09/01 08:42:47;;;;;;;32.60;11.90;;;;;;;24.50;55.83;100370.48;105491;1254;61372;-59
2023/09/01 08:45:15;;;;;;;28.00;10.20;;;;;;;24.58;55.13;100368.85;105311;1257;62508;-57
2023/09/01 08:47:45;;;;;;;23.20;9.80;;;;;;;24.69;54.68;100370.30;105241;1259;60477;-58
2023/09/01 08:50:16;;;;;;;15.50;8.50;;;;;;;24.73;54.05;100370.65;105754;1254;60550;-58
2023/09/01 08:52:46;;;;;;;15.80;8.60;;;;;;;24.76;54.34;100371.61;105337;1255;65016;-61
2023/09/01 08:55:14;;;;;;;11.60;7.30;;;;;;;24.79;54.31;100374.25;105380;1257;60656;-58
2023/09/01 08:57:42;;;;;;;8.80;6.60;;;;;;;24.83;54.19;100372.93;105548;1256;62543;-64
2023/09/01 09:00:10;;;;;;;11.50;6.80;;;;;;;24.89;53.96;100371.83;105494;1254;60432;-64
2023/09/01 09:02:41;;;;;;;11.30;7.40;;;;;;;24.93;53.70;100372.62;105629;1254;60554;-62
2023/09/01 09:05:27;;;;;;;11.50;7.30;;;;;;;24.98;53.55;100374.23;105506;1257;65444;-65
2023/09/01 09:08:03;;;;;;;9.80;7.00;;;;;;;25.02;53.63;100375.67;105391;1257;61334;-57
2023/09/01 09:10:41;;;;;;;12.80;7.80;;;;;;;25.08;53.08;100377.52;106635;1254;62450;-59
2023/09/01 09:13:29;;;;;;;9.30;6.90;;;;;;;25.16;52.97;100378.91;105551;1254;60587;-58
2023/09/01 09:16:14;;;;;;;11.30;7.70;;;;;;;25.25;52.33;100373.34;108908;1253;59216;-55
2023/09/01 09:18:44;;;;;;;13.90;8.20;;;;;;;25.30;52.22;100370.09;105858;1254;65027;-55
2023/09/01 09:21:28;;;;;;;9.50;7.00;;;;;;;25.34;51.86;100373.13;106938;1255;61281;-56
2023/09/01 09:24:00;;;;;;;8.60;6.50;;;;;;;25.35;51.74;100373.44;109234;1253;64253;-58
2023/09/01 09:26:46;;;;;;;8.80;7.20;;;;;;;25.35;51.51;100373.44;105525;1256;60560;-59
2023/09/01 09:29:15;;;;;;;9.10;6.80;;;;;;;25.37;51.84;100371.46;105259;1256;60524;-56
2023/09/01 09:31:44;;;;;;;8.70;6.50;;;;;;;25.39;51.76;100372.91;105321;1252;63701;-57
2023/09/01 09:34:18;;;;;;;9.70;7.60;;;;;;;25.39;51.70;100378.13;109305;1254;61438;-57
2023/09/01 09:36:47;;;;;;;9.30;6.80;;;;;;;25.37;51.56;100379.46;109253;1254;62536;-60
2023/09/01 09:39:27;;;;;;;10.00;7.10;;;;;;;25.36;51.50;100385.23;109274;1254;58291;-57
2023/09/01 09:41:56;;;;;;;12.40;7.70;;;;;;;25.37;51.38;100387.63;109268;1257;58251;-62
2023/09/01 09:44:33;;;;;;;9.30;7.20;;;;;;;25.46;51.68;100390.45;109251;1253;63636;-59
2023/09/01 09:47:12;;;;;;;8.40;6.20;;;;;;;25.55;51.26;100391.13;109254;1252;60107;-59
2023/09/01 09:49:41;;;;;;;9.00;6.20;;;;;;;25.62;51.19;100395.77;109256;1253;62442;-59
2023/09/01 09:52:09;;;;;;;10.30;6.80;;;;;;;25.67;50.99;100396.60;109271;1253;58634;-57
2023/09/01 09:54:39;;;;;;;8.70;6.60;;;;;;;25.70;50.79;100396.61;109314;1253;58913;-60
2023/09/01 09:57:08;;;;;;;8.90;6.40;;;;;;;25.74;50.47;100399.10;109369;1254;65361;-63
2023/09/01 09:59:43;;;;;;;8.40;6.60;;;;;;;25.77;50.40;100399.69;109047;1253;60138;-63
2023/09/01 10:02:19;;;;;;;;;;;;;;;25.85;50.45;100400.77;107698;1253;63807;-60
2023/09/01 10:04:47;;;;;;;;;;;;;;;25.92;49.17;100402.27;105511;1254;60559;-57
2023/09/01 10:07:14;;;;;;;8.00;5.80;;;;;;;25.96;48.78;100401.46;105583;1258;60468;-55
2023/09/01 10:09:42;;;;;;;10.90;6.40;;;;;;;26.04;48.64;100402.19;105546;1254;64826;-57
2023/09/01 10:12:09;;;;;;;7.90;6.10;;;;;;;26.11;47.97;100403.05;105595;1255;61344;-59
2023/09/01 10:14:39;;;;;;;7.80;5.80;;;;;;;26.17;47.23;100401.41;105357;1254;62551;-63
2023/09/01 10:17:07;;;;;;;9.00;5.90;;;;;;;26.21;46.48;100401.32;105461;1258;60502;-65
2023/09/01 10:19:34;;;;;;;7.40;5.40;;;;;;;26.22;46.25;100403.46;105386;1258;60467;-59
2023/09/01 10:22:02;;;;;;;8.90;6.60;;;;;;;26.16;46.20;100400.91;105529;1257;64990;-57
2023/09/01 10:24:30;;;;;;;8.30;6.60;;;;;;;26.11;46.76;100402.76;107014;1254;61356;-57
2023/09/01 10:27:09;;;;;;;8.90;7.00;;;;;;;26.17;46.72;100401.41;105497;1251;63673;-55
2023/09/01 10:29:37;;;;;;;9.70;6.80;;;;;;;26.26;46.43;100400.76;105341;1258;60524;-63
2023/09/01 10:32:18;;;;;;;8.50;6.90;;;;;;;26.34;45.83;100401.33;107774;1254;60530;-69
2023/09/01 10:34:55;;;;;;;8.20;5.90;;;;;;;26.36;45.48;100404.13;105620;1252;63674;-69
2023/09/01 10:37:27;;;;;;;8.00;6.10;;;;;;;26.34;45.06;100397.92;105440;1257;60613;-59
2023/09/01 10:39:55;;;;;;;7.70;5.70;;;;;;;26.32;44.62;100392.69;109303;1254;63745;-57
2023/09/01 10:42:50;;;;;;;7.30;5.10;;;;;;;26.34;44.62;100394.41;109341;1254;58176;-57
2023/09/01 10:45:17;;;;;;;7.00;5.30;;;;;;;26.35;43.59;100397.17;109266;1252;58466;-59
2023/09/01 10:47:45;;;;;;;10.70;7.10;;;;;;;26.36;44.95;100399.14;109311;1253;64846;-64
2023/09/01 10:50:16;;;;;;;9.60;7.40;;;;;;;26.37;45.01;100404.36;109281;1253;62479;-65
2023/09/01 10:52:46;;;;;;;8.40;7.20;;;;;;;26.41;45.03;100404.27;108858;1256;63659;-62
2023/09/01 10:55:14;;;;;;;9.60;7.70;;;;;;;26.52;44.94;100399.48;105485;1257;60563;-62
2023/09/01 10:57:48;;;;;;;10.00;7.50;;;;;;;26.65;44.88;100398.34;105416;1257;61179;-60
2023/09/01 11:00:29;;;;;;;9.60;7.40;;;;;;;26.78;44.63;100398.86;105469;1254;64869;-61
2023/09/01 11:03:29;;;;;;;7.50;6.20;;;;;;;26.79;45.09;100400.59;107103;1254;61335;-57
2023/09/01 11:05:58;;;;;;;11.20;8.20;;;;;;;26.87;45.53;100396.82;105433;1256;62469;-63
2023/09/01 11:08:25;;;;;;;10.00;8.00;;;;;;;26.96;44.61;100395.15;105757;1254;60827;-64
2023/09/01 11:11:00;;;;;;;12.10;7.80;;;;;;;26.95;44.57;100396.52;105382;1254;60555;-66
2023/09/01 11:13:28;;;;;;;8.50;6.20;;;;;;;26.92;44.52;100403.32;105379;1257;65323;-70
2023/09/01 11:15:55;;;;;;;9.30;7.20;;;;;;;26.89;44.37;100404.80;105203;1257;61419;-58
2023/09/01 11:18:24;;;;;;;13.00;6.70;;;;;;;26.89;44.81;100404.59;105301;1254;63547;-60
2023/09/01 11:20:54;;;;;;;10.10;7.60;;;;;;;26.97;44.63;100403.83;105527;1258;61782;-62
2023/09/01 11:23:22;;;;;;;14.20;6.60;;;;;;;27.04;43.81;100403.67;105419;1257;60345;-58